createdAt,value
2018-12-17T00:00:09.502Z,1.90
2018-12-17T00:02:37.082Z,1.90
2018-12-17T00:05:05.116Z,1.90
2018-12-17T00:07:32.585Z,1.90
2018-12-17T00:10:00.084Z,1.90
2018-12-17T00:12:27.528Z,1.90
2018-12-17T00:14:55.008Z,1.90
2018-12-17T00:17:22.486Z,1.90
2018-12-17T00:19:49.977Z,2.00
2018-12-17T00:22:17.563Z,1.90
2018-12-17T00:24:45.053Z,2.00
2018-12-17T00:27:12.520Z,2.00
2018-12-17T00:29:39.978Z,2.00
2018-12-17T00:32:08.209Z,2.00
2018-12-17T00:34:35.664Z,2.10
2018-12-17T00:37:03.135Z,2.10
2018-12-17T00:39:30.623Z,2.20
2018-12-17T00:41:58.073Z,2.20
2018-12-17T00:44:25.554Z,2.20
2018-12-17T00:46:53.010Z,2.20
2018-12-17T00:49:20.486Z,2.20
2018-12-17T00:51:47.954Z,2.20
2018-12-17T00:54:15.414Z,2.20
2018-12-17T00:56:42.885Z,2.10
2018-12-17T00:59:10.340Z,2.10
2018-12-17T01:01:37.899Z,2.10
2018-12-17T01:04:05.379Z,2.00
2018-12-17T01:06:32.839Z,2.00
2018-12-17T01:09:00.301Z,2.00
2018-12-17T01:11:27.764Z,2.00
2018-12-17T01:13:55.230Z,1.90
2018-12-17T01:16:22.705Z,1.90
2018-12-17T01:18:50.182Z,1.90
2018-12-17T01:21:17.640Z,1.90
2018-12-17T01:23:45.392Z,1.80
2018-12-17T01:26:13.015Z,1.80
2018-12-17T01:28:40.854Z,1.80
2018-12-17T01:31:08.326Z,1.80
2018-12-17T01:33:35.765Z,1.80
2018-12-17T01:36:03.244Z,1.80
2018-12-17T01:38:30.708Z,1.80
2018-12-17T01:40:58.175Z,1.80
2018-12-17T01:43:25.636Z,1.70
2018-12-17T01:45:53.111Z,1.80
2018-12-17T01:48:20.566Z,1.80
2018-12-17T01:50:48.050Z,1.80
2018-12-17T01:53:15.509Z,1.80
2018-12-17T01:55:42.991Z,1.90
2018-12-17T01:58:10.449Z,1.90
2018-12-17T02:00:37.926Z,1.90
2018-12-17T02:03:05.367Z,1.90
2018-12-17T02:05:32.842Z,1.90
2018-12-17T02:08:00.303Z,1.90
2018-12-17T02:10:27.764Z,1.90
2018-12-17T02:12:55.226Z,2.00
2018-12-17T02:15:22.753Z,2.00
2018-12-17T02:17:50.279Z,2.00
2018-12-17T02:20:17.736Z,2.00
2018-12-17T02:22:45.201Z,2.00
2018-12-17T02:25:12.658Z,2.00
2018-12-17T02:27:40.132Z,2.00
2018-12-17T02:30:07.581Z,2.00
2018-12-17T02:32:35.054Z,2.00
2018-12-17T02:35:02.532Z,1.90
2018-12-17T02:37:29.999Z,1.90
2018-12-17T02:39:57.476Z,1.90
2018-12-17T02:42:24.943Z,1.90
2018-12-17T02:44:52.399Z,1.90
2018-12-17T02:47:19.863Z,1.90
2018-12-17T02:49:47.334Z,1.90
2018-12-17T02:52:14.806Z,1.90
2018-12-17T02:54:42.528Z,1.90
2018-12-17T02:57:09.996Z,1.80
2018-12-17T02:59:37.442Z,1.80
2018-12-17T03:02:04.922Z,1.90
2018-12-17T03:04:32.403Z,1.90
2018-12-17T03:06:59.864Z,1.90
2018-12-17T03:09:27.347Z,2.00
2018-12-17T03:11:54.803Z,2.00
2018-12-17T03:14:22.384Z,2.10
2018-12-17T03:16:49.826Z,2.10
2018-12-17T03:19:17.311Z,2.20
2018-12-17T03:21:44.778Z,2.20
2018-12-17T03:24:12.256Z,2.20
2018-12-17T03:26:39.736Z,2.20
2018-12-17T03:29:07.194Z,2.20
2018-12-17T03:31:34.969Z,2.30
2018-12-17T03:34:02.461Z,2.20
2018-12-17T03:36:29.910Z,2.30
2018-12-17T03:38:57.369Z,2.30
2018-12-17T03:41:24.849Z,2.30
2018-12-17T03:43:52.367Z,2.30
2018-12-17T03:46:19.854Z,2.30
2018-12-17T03:48:47.303Z,2.30
2018-12-17T03:51:14.782Z,2.30
2018-12-17T03:53:42.233Z,2.30
2018-12-17T03:56:09.704Z,2.30
2018-12-17T03:58:37.271Z,2.30
2018-12-17T04:01:04.754Z,2.30
2018-12-17T04:03:32.201Z,2.30
2018-12-17T04:05:59.668Z,2.30
2018-12-17T04:08:27.154Z,2.30
2018-12-17T04:10:54.649Z,2.30
2018-12-17T04:13:22.091Z,2.30
2018-12-17T04:15:49.562Z,2.40
2018-12-17T04:18:17.055Z,2.40
2018-12-17T04:20:44.506Z,2.40
2018-12-17T04:23:11.984Z,2.40
2018-12-17T04:25:39.473Z,2.50
2018-12-17T04:28:08.946Z,2.50
2018-12-17T04:30:36.389Z,2.60
2018-12-17T04:33:03.943Z,2.60
2018-12-17T04:35:31.387Z,2.60
2018-12-17T04:37:58.861Z,2.70
2018-12-17T04:40:26.315Z,2.70
2018-12-17T04:42:53.822Z,2.70
2018-12-17T04:45:21.278Z,2.70
2018-12-17T04:47:48.786Z,2.80
2018-12-17T04:50:16.240Z,2.80
2018-12-17T04:52:43.698Z,2.90
2018-12-17T04:55:11.258Z,2.90
2018-12-17T04:57:39.011Z,2.90
2018-12-17T05:00:08.947Z,2.90
2018-12-17T05:02:36.424Z,3.00
2018-12-17T05:05:04.881Z,3.00
2018-12-17T05:07:32.363Z,3.10
2018-12-17T05:09:59.805Z,3.10
2018-12-17T05:12:27.286Z,3.20
2018-12-17T05:14:54.777Z,3.30
2018-12-17T05:17:22.210Z,3.30
2018-12-17T05:19:49.679Z,3.40
2018-12-17T05:22:17.132Z,3.50
2018-12-17T05:24:44.608Z,3.60
2018-12-17T05:27:12.159Z,3.60
2018-12-17T05:29:39.652Z,3.70
2018-12-17T05:32:07.109Z,3.60
2018-12-17T05:34:34.578Z,3.70
2018-12-17T05:37:02.037Z,3.70
2018-12-17T05:39:29.519Z,3.80
2018-12-17T05:41:56.967Z,3.70
2018-12-17T05:44:24.430Z,3.80
2018-12-17T05:46:51.903Z,3.90
2018-12-17T05:49:19.378Z,3.90
2018-12-17T05:51:46.845Z,3.90
2018-12-17T05:54:14.326Z,4.00
2018-12-17T05:56:41.810Z,4.10
2018-12-17T06:01:43.370Z,4.10
2018-12-17T06:04:10.830Z,4.10
2018-12-17T06:06:38.298Z,4.10
2018-12-17T06:09:07.468Z,4.10
2018-12-17T06:11:35.267Z,4.10
2018-12-17T06:14:03.933Z,4.20
2018-12-17T06:16:31.424Z,4.20
2018-12-17T06:18:58.879Z,4.20
2018-12-17T06:21:26.346Z,4.20
2018-12-17T06:23:53.814Z,4.30
2018-12-17T06:26:21.281Z,4.30
2018-12-17T06:28:48.741Z,4.30
2018-12-17T06:31:16.205Z,4.30
2018-12-17T06:33:43.659Z,4.30
2018-12-17T06:36:11.106Z,4.30
2018-12-17T06:38:38.613Z,4.30
2018-12-17T06:41:06.054Z,4.30
2018-12-17T06:43:33.530Z,4.40
2018-12-17T06:46:00.985Z,4.40
2018-12-17T06:48:28.466Z,4.40
2018-12-17T06:50:55.926Z,4.40
2018-12-17T06:53:23.426Z,4.40
2018-12-17T06:55:50.932Z,4.40
2018-12-17T06:58:18.714Z,4.40
2018-12-17T07:00:46.210Z,4.40
2018-12-17T07:03:13.694Z,4.40
2018-12-17T07:05:41.158Z,4.50
2018-12-17T07:08:08.618Z,4.40
2018-12-17T07:10:36.094Z,4.40
2018-12-17T07:13:03.560Z,4.40
2018-12-17T07:15:31.015Z,4.40
2018-12-17T07:17:58.495Z,4.40
2018-12-17T07:20:25.950Z,4.50
2018-12-17T07:22:53.446Z,4.50
2018-12-17T07:25:20.951Z,4.50
2018-12-17T07:27:48.426Z,4.50
2018-12-17T07:30:15.885Z,4.60
2018-12-17T07:32:43.339Z,4.60
2018-12-17T07:35:10.807Z,4.60
2018-12-17T07:37:38.285Z,4.50
2018-12-17T07:40:07.006Z,4.50
2018-12-17T07:42:34.496Z,4.50
2018-12-17T07:45:01.947Z,4.60
2018-12-17T07:47:29.411Z,4.60
2018-12-17T07:49:56.957Z,4.60
2018-12-17T07:52:24.410Z,4.60
2018-12-17T07:54:51.901Z,4.60
2018-12-17T07:57:19.367Z,4.70
2018-12-17T07:59:46.830Z,4.70
2018-12-17T08:02:14.276Z,4.80
2018-12-17T08:04:41.763Z,4.80
2018-12-17T08:07:09.219Z,4.80
2018-12-17T08:09:36.687Z,4.80
2018-12-17T08:12:04.206Z,4.90
2018-12-17T08:14:31.674Z,4.90
2018-12-17T08:16:59.289Z,5.00
2018-12-17T08:19:26.782Z,5.00
2018-12-17T08:21:54.332Z,5.10
2018-12-17T08:24:21.797Z,5.10
2018-12-17T08:26:49.256Z,5.10
2018-12-17T08:29:16.711Z,5.20
2018-12-17T08:31:44.187Z,5.20
2018-12-17T08:34:11.670Z,5.20
2018-12-17T08:36:39.159Z,5.20
2018-12-17T08:39:06.974Z,5.20
2018-12-17T08:41:34.443Z,5.20
2018-12-17T08:44:02.350Z,5.20
2018-12-17T08:46:29.817Z,5.20
2018-12-17T08:48:57.286Z,5.30
2018-12-17T08:51:24.756Z,5.40
2018-12-17T08:53:53.111Z,5.40
2018-12-17T08:56:20.700Z,5.40
2018-12-17T08:58:48.174Z,5.50
2018-12-17T09:01:15.606Z,5.50
2018-12-17T09:03:43.078Z,5.60
2018-12-17T09:06:10.527Z,5.60
2018-12-17T09:08:38.009Z,5.70
2018-12-17T09:11:05.448Z,5.70
2018-12-17T09:13:32.985Z,5.70
2018-12-17T09:16:00.542Z,5.80
2018-12-17T09:18:27.995Z,5.80
2018-12-17T09:20:55.458Z,5.80
2018-12-17T09:23:22.933Z,5.70
2018-12-17T09:25:50.401Z,5.80
2018-12-17T09:28:18.020Z,5.80
2018-12-17T09:30:45.462Z,5.70
2018-12-17T09:33:12.950Z,5.70
2018-12-17T09:38:14.425Z,5.70
2018-12-17T09:40:41.873Z,5.70
2018-12-17T09:43:09.623Z,5.70
2018-12-17T09:45:37.086Z,5.80
2018-12-17T09:48:04.659Z,5.70
2018-12-17T09:50:32.114Z,5.70
2018-12-17T09:52:59.566Z,5.80
2018-12-17T09:55:27.042Z,5.80
2018-12-17T09:57:54.476Z,5.90
2018-12-17T10:00:25.451Z,6.00
2018-12-17T10:02:51.392Z,6.10
2018-12-17T10:05:18.854Z,6.10
2018-12-17T10:07:46.309Z,6.10
2018-12-17T10:10:13.785Z,6.10
2018-12-17T10:12:41.241Z,6.20
2018-12-17T10:15:08.706Z,6.10
2018-12-17T10:17:36.168Z,6.20
2018-12-17T10:20:04.822Z,6.20
2018-12-17T10:22:32.274Z,6.20
2018-12-17T10:24:59.734Z,6.20
2018-12-17T10:27:27.176Z,6.20
2018-12-17T10:29:54.653Z,6.20
2018-12-17T10:32:22.170Z,6.20
2018-12-17T10:34:49.695Z,6.40
2018-12-17T10:37:17.157Z,6.30
2018-12-17T10:39:45.526Z,6.40
2018-12-17T10:42:13.014Z,6.50
2018-12-17T10:44:40.450Z,6.60
2018-12-17T10:47:07.922Z,6.70
2018-12-17T10:49:35.379Z,6.80
2018-12-17T10:52:02.846Z,6.80
2018-12-17T10:54:30.325Z,6.90
2018-12-17T10:56:57.805Z,6.90
2018-12-17T10:59:25.251Z,6.90
2018-12-17T11:01:55.355Z,7.00
2018-12-17T11:04:24.371Z,7.00
2018-12-17T11:06:51.906Z,7.10
2018-12-17T11:09:19.339Z,7.20
2018-12-17T11:11:46.801Z,7.30
2018-12-17T11:14:14.278Z,7.40
2018-12-17T11:16:41.747Z,7.40
2018-12-17T11:19:09.199Z,7.50
2018-12-17T11:21:36.663Z,7.40
2018-12-17T11:24:04.110Z,7.50
2018-12-17T11:26:31.679Z,7.60
2018-12-17T11:28:59.133Z,7.50
2018-12-17T11:31:26.612Z,7.60
2018-12-17T11:33:54.100Z,7.60
2018-12-17T11:36:21.560Z,7.60
2018-12-17T11:38:49.022Z,7.70
2018-12-17T11:41:16.538Z,7.60
2018-12-17T11:43:44.233Z,7.60
2018-12-17T11:46:11.812Z,7.70
2018-12-17T11:48:39.955Z,7.70
2018-12-17T11:51:07.416Z,7.70
2018-12-17T11:53:34.875Z,7.60
2018-12-17T11:56:02.329Z,7.70
2018-12-17T11:58:29.878Z,7.80
2018-12-17T12:00:58.079Z,7.90
2018-12-17T12:03:25.549Z,8.00
2018-12-17T12:05:53.032Z,8.00
2018-12-17T12:08:20.489Z,8.10
2018-12-17T12:10:47.927Z,8.20
2018-12-17T12:13:15.430Z,8.20
2018-12-17T12:15:42.942Z,8.30
2018-12-17T12:18:10.514Z,8.20
2018-12-17T12:20:37.984Z,8.40
2018-12-17T12:23:05.453Z,8.40
2018-12-17T12:25:32.901Z,8.50
2018-12-17T12:28:00.380Z,8.60
2018-12-17T12:30:27.851Z,8.70
2018-12-17T12:32:55.303Z,8.70
2018-12-17T12:35:22.786Z,8.60
2018-12-17T12:37:50.234Z,8.60
2018-12-17T12:40:17.695Z,8.70
2018-12-17T12:42:51.336Z,8.70
2018-12-17T12:45:14.750Z,8.80
2018-12-17T12:47:42.226Z,9.00
2018-12-17T12:50:09.813Z,9.10
2018-12-17T12:52:37.252Z,9.10
2018-12-17T12:55:05.062Z,9.10
2018-12-17T12:57:32.529Z,9.00
2018-12-17T12:59:59.971Z,9.00
2018-12-17T13:02:27.442Z,8.90
2018-12-17T13:04:54.903Z,9.00
2018-12-17T13:07:22.373Z,9.00
2018-12-17T13:09:49.809Z,8.90
2018-12-17T13:12:17.284Z,8.80
2018-12-17T13:14:44.827Z,8.70
2018-12-17T13:17:17.954Z,8.60
2018-12-17T13:19:45.413Z,8.60
2018-12-17T13:22:12.894Z,8.60
2018-12-17T13:24:40.455Z,8.60
2018-12-17T13:27:07.905Z,8.60
2018-12-17T13:29:35.380Z,8.60
2018-12-17T13:32:02.847Z,8.70
2018-12-17T13:34:30.300Z,8.60
2018-12-17T13:36:57.775Z,8.50
2018-12-17T13:39:25.244Z,8.50
2018-12-17T13:41:52.719Z,8.50
2018-12-17T13:44:20.188Z,8.40
2018-12-17T13:46:47.714Z,8.40
2018-12-17T13:49:15.366Z,8.40
2018-12-17T13:51:48.585Z,8.30
2018-12-17T13:54:16.057Z,8.30
2018-12-17T13:56:43.531Z,8.30
2018-12-17T13:59:10.994Z,8.30
2018-12-17T14:01:38.443Z,8.30
2018-12-17T14:04:05.943Z,8.30
2018-12-17T14:06:33.407Z,8.40
2018-12-17T14:09:00.915Z,8.40
2018-12-17T14:11:28.867Z,8.50
2018-12-17T14:13:56.363Z,8.40
2018-12-17T14:16:25.794Z,8.40
2018-12-17T14:18:58.881Z,8.40
2018-12-17T14:21:32.083Z,8.50
2018-12-17T14:23:59.640Z,8.50
2018-12-17T14:26:27.087Z,8.60
2018-12-17T14:28:54.623Z,8.50
2018-12-17T14:31:28.571Z,8.50
2018-12-17T14:33:51.595Z,8.50
2018-12-17T14:36:19.060Z,8.50
2018-12-17T14:38:46.533Z,8.60
2018-12-17T14:41:14.039Z,8.50
2018-12-17T14:43:41.504Z,8.60
2018-12-17T14:46:08.969Z,8.60
2018-12-17T14:48:36.416Z,8.60
2018-12-17T14:51:03.894Z,8.50
2018-12-17T14:53:31.362Z,8.60
2018-12-17T14:55:58.842Z,8.60
2018-12-17T14:58:26.305Z,8.60
2018-12-17T15:00:53.774Z,8.50
2018-12-17T15:03:21.224Z,8.60
2018-12-17T15:05:48.697Z,8.50
2018-12-17T15:08:16.171Z,8.50
2018-12-17T15:10:43.660Z,8.60
2018-12-17T15:13:11.110Z,8.60
2018-12-17T15:15:38.579Z,8.50
2018-12-17T15:18:06.068Z,8.50
2018-12-17T15:20:33.542Z,8.50
2018-12-17T15:23:01.050Z,8.50
2018-12-17T15:25:28.508Z,8.50
2018-12-17T15:27:55.976Z,8.50
2018-12-17T15:30:23.620Z,8.50
2018-12-17T15:32:51.179Z,8.50
2018-12-17T15:35:18.639Z,8.40
2018-12-17T15:37:46.100Z,8.40
2018-12-17T15:40:13.661Z,8.40
2018-12-17T15:42:41.218Z,8.40
2018-12-17T15:45:08.860Z,8.30
2018-12-17T15:47:36.347Z,8.40
2018-12-17T15:50:04.206Z,8.30
2018-12-17T15:52:31.677Z,8.30
2018-12-17T15:54:59.227Z,8.30
2018-12-17T15:57:26.700Z,8.30
2018-12-17T15:59:54.192Z,8.30
2018-12-17T16:02:21.698Z,8.30
2018-12-17T16:04:49.223Z,8.30
2018-12-17T16:07:16.716Z,8.30
2018-12-17T16:09:44.567Z,8.40
2018-12-17T16:12:12.022Z,8.30
2018-12-17T16:14:39.482Z,8.20
2018-12-17T16:17:06.970Z,8.20
2018-12-17T16:19:34.459Z,8.20
2018-12-17T16:22:01.933Z,8.10
2018-12-17T16:24:29.397Z,8.20
2018-12-17T16:26:56.925Z,8.20
2018-12-17T16:29:24.398Z,8.20
2018-12-17T16:31:57.229Z,8.20
2018-12-17T16:34:21.384Z,8.20
2018-12-17T16:36:49.149Z,8.30
2018-12-17T16:39:16.615Z,8.20
2018-12-17T16:41:44.150Z,8.20
2018-12-17T16:44:11.727Z,8.20
2018-12-17T16:46:39.273Z,8.20
2018-12-17T16:49:06.726Z,8.20
2018-12-17T16:51:34.206Z,8.20
2018-12-17T16:54:01.650Z,8.20
2018-12-17T16:56:29.122Z,8.10
2018-12-17T16:58:56.598Z,8.10
2018-12-17T17:01:24.331Z,8.10
2018-12-17T17:03:51.801Z,8.00
2018-12-17T17:06:19.380Z,8.00
2018-12-17T17:08:46.846Z,8.10
2018-12-17T17:11:14.299Z,8.00
2018-12-17T17:13:41.797Z,7.90
2018-12-17T17:16:09.242Z,7.90
2018-12-17T17:18:36.713Z,7.90
2018-12-17T17:21:04.161Z,7.80
2018-12-17T17:23:31.647Z,7.80
2018-12-17T17:25:59.119Z,7.70
2018-12-17T17:28:26.608Z,7.70
2018-12-17T17:30:54.065Z,7.70
2018-12-17T17:33:21.547Z,7.70
2018-12-17T17:35:48.991Z,7.60
2018-12-17T17:38:16.511Z,7.60
2018-12-17T17:40:43.982Z,7.60
2018-12-17T17:43:11.438Z,7.50
2018-12-17T17:45:38.890Z,7.40
2018-12-17T17:48:06.374Z,7.30
2018-12-17T17:50:33.820Z,7.20
2018-12-17T17:53:01.281Z,7.10
2018-12-17T17:55:28.742Z,7.00
2018-12-17T17:57:56.221Z,7.00
2018-12-17T18:00:23.688Z,6.90
2018-12-17T18:02:51.156Z,6.80
2018-12-17T18:05:18.630Z,6.80
2018-12-17T18:07:46.110Z,6.70
2018-12-17T18:10:13.587Z,6.60
2018-12-17T18:12:41.042Z,6.60
2018-12-17T18:15:08.623Z,6.50
2018-12-17T18:17:36.164Z,6.50
2018-12-17T18:20:03.998Z,6.50
2018-12-17T18:22:31.487Z,6.40
2018-12-17T18:24:58.993Z,6.40
2018-12-17T18:27:26.450Z,6.40
2018-12-17T18:29:53.958Z,6.30
2018-12-17T18:32:25.881Z,6.30
2018-12-17T18:34:50.902Z,6.30
2018-12-17T18:37:18.390Z,6.20
2018-12-17T18:39:45.855Z,6.30
2018-12-17T18:42:13.343Z,6.30
2018-12-17T18:44:40.787Z,6.40
2018-12-17T18:47:08.322Z,6.40
2018-12-17T18:49:35.788Z,6.40
2018-12-17T18:52:03.275Z,6.50
2018-12-17T18:59:27.088Z,6.50
2018-12-17T19:01:54.602Z,6.50
2018-12-17T19:04:22.083Z,6.60
2018-12-17T19:06:49.574Z,6.60
2018-12-17T19:09:17.050Z,6.60
2018-12-17T19:11:44.548Z,6.60
2018-12-17T19:14:12.006Z,6.60
2018-12-17T19:16:39.474Z,6.70
2018-12-17T19:19:06.953Z,6.60
2018-12-17T19:21:34.415Z,6.60
2018-12-17T19:24:02.143Z,6.60
2018-12-17T19:26:29.612Z,6.70
2018-12-17T19:31:26.639Z,6.70
2018-12-17T19:33:54.289Z,6.70
2018-12-17T19:36:21.775Z,6.60
2018-12-17T19:38:49.283Z,6.70
2018-12-17T19:41:16.722Z,6.70
2018-12-17T19:43:44.231Z,6.60
2018-12-17T19:46:11.679Z,6.60
2018-12-17T19:48:39.163Z,6.60
2018-12-17T19:51:06.649Z,6.60
2018-12-17T19:53:34.221Z,6.60
2018-12-17T19:56:01.684Z,6.60
2018-12-17T19:58:29.296Z,6.60
2018-12-17T20:00:56.783Z,6.60
2018-12-17T20:03:24.532Z,6.60
2018-12-17T20:05:51.994Z,6.60
2018-12-17T20:08:19.466Z,6.60
2018-12-17T20:10:46.992Z,6.60
2018-12-17T20:13:14.541Z,6.60
2018-12-17T20:15:42.155Z,6.60
2018-12-17T20:18:09.705Z,6.70
2018-12-17T20:20:37.822Z,6.60
2018-12-17T20:23:05.678Z,6.60
2018-12-17T20:25:33.195Z,6.60
2018-12-17T20:28:00.805Z,6.60
2018-12-17T20:30:28.570Z,6.60
2018-12-17T20:32:56.161Z,6.40
2018-12-17T20:35:24.511Z,6.50
2018-12-17T20:37:52.165Z,6.40
2018-12-17T20:40:19.727Z,6.20
2018-12-17T20:42:47.243Z,6.20
2018-12-17T20:45:14.826Z,6.10
2018-12-17T20:47:42.389Z,6.10
2018-12-17T20:50:10.293Z,6.00
2018-12-17T20:52:37.788Z,6.00
2018-12-17T20:55:05.438Z,6.00
2018-12-17T20:57:33.092Z,6.00
2018-12-17T21:00:00.613Z,6.00
2018-12-17T21:02:28.147Z,6.00
2018-12-17T21:04:56.040Z,6.00
2018-12-17T21:07:23.648Z,6.00
2018-12-17T21:09:51.147Z,6.00
2018-12-17T21:12:19.458Z,6.00
2018-12-17T21:14:48.868Z,6.00
2018-12-17T21:17:16.465Z,6.00
2018-12-17T21:19:43.993Z,5.90
2018-12-17T21:22:11.626Z,5.80
2018-12-17T21:24:39.187Z,5.80
2018-12-17T21:27:06.955Z,5.60
2018-12-17T21:29:34.522Z,5.60
2018-12-17T21:32:02.728Z,5.60
2018-12-17T21:34:30.258Z,5.50
2018-12-17T21:36:57.858Z,5.50
2018-12-17T21:39:25.730Z,5.50
2018-12-17T21:41:54.245Z,5.50
2018-12-17T21:44:21.731Z,5.40
2018-12-17T21:46:49.213Z,5.30
2018-12-17T21:49:16.697Z,5.30
2018-12-17T21:51:44.231Z,5.30
2018-12-17T21:54:11.691Z,5.30
2018-12-17T21:56:39.163Z,5.30
2018-12-17T21:59:06.659Z,5.50
2018-12-17T22:01:34.133Z,5.50
2018-12-17T22:04:01.589Z,5.60
2018-12-17T22:06:29.160Z,5.70
2018-12-17T22:08:56.662Z,5.70
2018-12-17T22:11:24.146Z,5.70
2018-12-17T22:13:51.602Z,5.70
2018-12-17T22:16:19.066Z,5.60
2018-12-17T22:18:46.550Z,5.50
2018-12-17T22:21:14.043Z,5.50
2018-12-17T22:23:41.517Z,5.50
2018-12-17T22:26:09.045Z,5.40
2018-12-17T22:28:36.487Z,5.30
2018-12-17T22:31:03.981Z,5.30
2018-12-17T22:33:31.458Z,5.20
2018-12-17T22:35:58.926Z,5.20
2018-12-17T22:38:26.382Z,5.20
2018-12-17T22:40:53.859Z,5.10
2018-12-17T22:43:21.320Z,5.10
2018-12-17T22:48:16.260Z,4.90
2018-12-17T22:50:43.725Z,4.90
2018-12-17T22:53:11.168Z,4.90
2018-12-17T22:55:38.653Z,4.80
2018-12-17T22:58:06.127Z,4.80
2018-12-17T23:00:33.608Z,4.80
2018-12-17T23:03:01.085Z,4.70
2018-12-17T23:05:28.530Z,4.70
2018-12-17T23:07:56.105Z,4.70
2018-12-17T23:10:37.403Z,4.70
2018-12-17T23:13:16.807Z,4.70
2018-12-17T23:15:56.283Z,4.70
2018-12-17T23:18:23.350Z,4.70
2018-12-17T23:20:50.858Z,4.70
2018-12-17T23:23:18.339Z,4.80
2018-12-17T23:25:45.795Z,4.80
2018-12-17T23:28:13.290Z,4.90
2018-12-17T23:30:40.752Z,4.90
2018-12-17T23:33:08.216Z,4.90
2018-12-17T23:35:35.674Z,4.90
2018-12-17T23:38:03.123Z,5.00
2018-12-17T23:40:30.579Z,5.00
2018-12-17T23:42:58.041Z,4.90
2018-12-17T23:45:25.483Z,4.90
2018-12-17T23:47:52.984Z,4.90
2018-12-17T23:50:20.469Z,4.80
2018-12-17T23:52:47.918Z,4.80
2018-12-17T23:55:15.394Z,4.80
2018-12-17T23:57:42.844Z,4.80
